sensor_id;sensor_type;location;lat;lon;timestamp;pressure;altitude;pressure_sealevel;temperature;humidity
50652;BME280;61429;52.086;5.240;2022-07-17T00:00:48;102665.00000000001;;;15.91;62.09
50652;BME280;61429;52.086;5.240;2022-07-17T00:02:35;102658.0;;;16.14;61.72
50652;BME280;61429;52.086;5.240;2022-07-17T00:04:22;102659.99999999999;;;15.88;62.37
50652;BME280;61429;52.086;5.240;2022-07-17T00:06:09;102653.0;;;15.99;62.2
50652;BME280;61429;52.086;5.240;2022-07-17T00:07:56;102653.0;;;16.2;61.56
50652;BME280;61429;52.086;5.240;2022-07-17T00:11:30;102650.0;;;16.18;61.66
50652;BME280;61429;52.086;5.240;2022-07-17T00:13:17;102651.0;;;16.18;61.58
50652;BME280;61429;52.086;5.240;2022-07-17T00:15:05;102652.0;;;16.22;61.31
50652;BME280;61429;52.086;5.240;2022-07-17T00:16:53;102655.0;;;16.18;61.66
50652;BME280;61429;52.086;5.240;2022-07-17T00:18:39;102658.0;;;16.25;61.36
50652;BME280;61429;52.086;5.240;2022-07-17T00:20:28;102655.0;;;16.29;61.12
50652;BME280;61429;52.086;5.240;2022-07-17T00:24:01;102659.99999999999;;;16.3;61.16
50652;BME280;61429;52.086;5.240;2022-07-17T00:25:49;102653.0;;;16.25;61.14
50652;BME280;61429;52.086;5.240;2022-07-17T00:27:35;102659.99999999999;;;16.2;61.21
50652;BME280;61429;52.086;5.240;2022-07-17T00:29:22;102661.99999999999;;;16.25;61.09
50652;BME280;61429;52.086;5.240;2022-07-17T00:31:10;102667.0;;;16.21;61.11
50652;BME280;61429;52.086;5.240;2022-07-17T00:32:57;102668.0;;;16.27;61.01
50652;BME280;61429;52.086;5.240;2022-07-17T00:36:31;102666.00000000001;;;16.25;61.06
50652;BME280;61429;52.086;5.240;2022-07-17T00:38:17;102666.00000000001;;;16.28;61.04
50652;BME280;61429;52.086;5.240;2022-07-17T00:40:06;102658.99999999999;;;16.41;60.69
50652;BME280;61429;52.086;5.240;2022-07-17T00:41:53;102658.99999999999;;;16.39;60.65
50652;BME280;61429;52.086;5.240;2022-07-17T00:43:39;102655.0;;;16.27;61.06
50652;BME280;61429;52.086;5.240;2022-07-17T00:45:26;102653.0;;;16.31;61.0
50652;BME280;61429;52.086;5.240;2022-07-17T00:49:03;102655.0;;;16.31;60.97
50652;BME280;61429;52.086;5.240;2022-07-17T00:50:51;102650.0;;;16.27;61.14
50652;BME280;61429;52.086;5.240;2022-07-17T00:52:38;102655.0;;;16.3;60.97
50652;BME280;61429;52.086;5.240;2022-07-17T00:54:25;102656.0;;;16.25;61.1
50652;BME280;61429;52.086;5.240;2022-07-17T00:56:12;102652.0;;;16.22;61.21
50652;BME280;61429;52.086;5.240;2022-07-17T00:58:04;102650.0;;;16.28;61.05
50652;BME280;61429;52.086;5.240;2022-07-17T01:01:39;102649.0;;;16.21;61.25
50652;BME280;61429;52.086;5.240;2022-07-17T01:03:27;102655.0;;;16.23;61.15
50652;BME280;61429;52.086;5.240;2022-07-17T01:05:14;102655.0;;;16.22;60.99
50652;BME280;61429;52.086;5.240;2022-07-17T01:07:03;102658.0;;;16.23;60.94
50652;BME280;61429;52.086;5.240;2022-07-17T01:08:51;102654.0;;;16.25;60.83
50652;BME280;61429;52.086;5.240;2022-07-17T01:10:39;102656.0;;;16.22;60.99
50652;BME280;61429;52.086;5.240;2022-07-17T01:14:14;102664.00000000001;;;16.25;60.83
50652;BME280;61429;52.086;5.240;2022-07-17T01:16:01;102658.0;;;16.21;60.98
50652;BME280;61429;52.086;5.240;2022-07-17T01:17:48;102656.0;;;16.25;60.86
50652;BME280;61429;52.086;5.240;2022-07-17T01:19:35;102661.99999999999;;;16.25;60.84
50652;BME280;61429;52.086;5.240;2022-07-17T01:21:22;102658.99999999999;;;16.14;61.11
50652;BME280;61429;52.086;5.240;2022-07-17T01:23:09;102658.0;;;16.18;61.03
50652;BME280;61429;52.086;5.240;2022-07-17T01:26:44;102654.0;;;16.2;60.82
50652;BME280;61429;52.086;5.240;2022-07-17T01:28:32;102657.0;;;16.07;60.8
50652;BME280;61429;52.086;5.240;2022-07-17T01:30:19;102655.0;;;16.02;60.87
50652;BME280;61429;52.086;5.240;2022-07-17T01:32:07;102656.0;;;16.02;60.69
50652;BME280;61429;52.086;5.240;2022-07-17T01:33:54;102652.0;;;15.98;60.52
50652;BME280;61429;52.086;5.240;2022-07-17T01:35:41;102651.0;;;16.02;60.31
50652;BME280;61429;52.086;5.240;2022-07-17T01:39:15;102653.0;;;15.88;60.65
50652;BME280;61429;52.086;5.240;2022-07-17T01:41:02;102641.00000000001;;;15.97;60.31
50652;BME280;61429;52.086;5.240;2022-07-17T01:42:50;102639.00000000001;;;15.85;60.51
50652;BME280;61429;52.086;5.240;2022-07-17T01:44:37;102634.99999999999;;;15.7;60.74
50652;BME280;61429;52.086;5.240;2022-07-17T01:46:24;102631.0;;;15.75;60.53
50652;BME280;61429;52.086;5.240;2022-07-17T01:48:11;102633.0;;;15.69;60.51
50652;BME280;61429;52.086;5.240;2022-07-17T01:51:45;102631.0;;;15.57;60.78
50652;BME280;61429;52.086;5.240;2022-07-17T01:53:32;102633.0;;;15.56;61.07
50652;BME280;61429;52.086;5.240;2022-07-17T01:55:19;102638.00000000001;;;15.5;61.57
50652;BME280;61429;52.086;5.240;2022-07-17T01:57:07;102639.00000000001;;;15.38;62.12
50652;BME280;61429;52.086;5.240;2022-07-17T01:58:55;102640.00000000001;;;15.39;62.24
50652;BME280;61429;52.086;5.240;2022-07-17T02:00:42;102642.0;;;15.34;62.35
50652;BME280;61429;52.086;5.240;2022-07-17T02:04:16;102643.0;;;15.38;62.22
50652;BME280;61429;52.086;5.240;2022-07-17T02:06:03;102640.00000000001;;;15.22;62.85
50652;BME280;61429;52.086;5.240;2022-07-17T02:07:50;102644.0;;;14.96;63.62
50652;BME280;61429;52.086;5.240;2022-07-17T02:09:38;102642.0;;;15.04;63.34
50652;BME280;61429;52.086;5.240;2022-07-17T02:11:25;102636.99999999999;;;15.24;62.64
50652;BME280;61429;52.086;5.240;2022-07-17T02:13:12;102642.0;;;14.95;63.38
50652;BME280;61429;52.086;5.240;2022-07-17T02:16:45;102640.00000000001;;;14.8;64.1
50652;BME280;61429;52.086;5.240;2022-07-17T02:18:32;102638.00000000001;;;14.85;64.0
50652;BME280;61429;52.086;5.240;2022-07-17T02:20:20;102639.00000000001;;;14.82;63.93
50652;BME280;61429;52.086;5.240;2022-07-17T02:22:08;102639.00000000001;;;14.9;63.73
50652;BME280;61429;52.086;5.240;2022-07-17T02:23:56;102636.99999999999;;;14.78;63.75
50652;BME280;61429;52.086;5.240;2022-07-17T02:27:30;102642.0;;;14.97;63.41
50652;BME280;61429;52.086;5.240;2022-07-17T02:29:17;102645.0;;;14.68;64.17
50652;BME280;61429;52.086;5.240;2022-07-17T02:31:05;102653.0;;;14.92;63.26
50652;BME280;61429;52.086;5.240;2022-07-17T02:32:52;102651.0;;;14.95;63.13
50652;BME280;61429;52.086;5.240;2022-07-17T02:34:38;102654.0;;;14.98;62.93
50652;BME280;61429;52.086;5.240;2022-07-17T02:36:24;102652.0;;;14.87;62.89
50652;BME280;61429;52.086;5.240;2022-07-17T02:39:59;102654.0;;;14.73;63.38
50652;BME280;61429;52.086;5.240;2022-07-17T02:41:46;102658.99999999999;;;14.5;64.02
50652;BME280;61429;52.086;5.240;2022-07-17T02:43:33;102663.00000000001;;;14.64;63.9
50652;BME280;61429;52.086;5.240;2022-07-17T02:45:24;102663.00000000001;;;14.74;63.6
50652;BME280;61429;52.086;5.240;2022-07-17T02:47:11;102663.00000000001;;;14.8;63.46
50652;BME280;61429;52.086;5.240;2022-07-17T02:48:58;102663.00000000001;;;14.68;63.89
50652;BME280;61429;52.086;5.240;2022-07-17T02:52:32;102657.0;;;14.61;63.99
50652;BME280;61429;52.086;5.240;2022-07-17T02:54:19;102656.0;;;14.21;65.22
50652;BME280;61429;52.086;5.240;2022-07-17T02:56:06;102649.0;;;14.26;64.99
50652;BME280;61429;52.086;5.240;2022-07-17T02:57:53;102653.0;;;14.23;64.97
50652;BME280;61429;52.086;5.240;2022-07-17T02:59:41;102648.0;;;14.22;65.03
50652;BME280;61429;52.086;5.240;2022-07-17T03:01:28;102644.0;;;14.24;64.95
50652;BME280;61429;52.086;5.240;2022-07-17T03:05:02;102646.0;;;14.39;64.42
50652;BME280;61429;52.086;5.240;2022-07-17T03:06:49;102642.0;;;14.34;64.55
50652;BME280;61429;52.086;5.240;2022-07-17T03:08:36;102641.00000000001;;;14.45;64.14
50652;BME280;61429;52.086;5.240;2022-07-17T03:10:23;102638.00000000001;;;14.33;64.33
50652;BME280;61429;52.086;5.240;2022-07-17T03:12:09;102641.00000000001;;;14.33;64.5
50652;BME280;61429;52.086;5.240;2022-07-17T03:13:56;102642.0;;;14.44;64.16
50652;BME280;61429;52.086;5.240;2022-07-17T03:17:30;102644.0;;;14.48;63.92
50652;BME280;61429;52.086;5.240;2022-07-17T03:19:17;102651.0;;;14.51;64.08
50652;BME280;61429;52.086;5.240;2022-07-17T03:21:04;102651.0;;;14.23;64.91
50652;BME280;61429;52.086;5.240;2022-07-17T03:22:51;102648.0;;;14.37;64.66
50652;BME280;61429;52.086;5.240;2022-07-17T03:24:39;102654.0;;;14.17;65.08
50652;BME280;61429;52.086;5.240;2022-07-17T03:26:26;102661.99999999999;;;14.27;64.74
50652;BME280;61429;52.086;5.240;2022-07-17T03:29:59;102664.00000000001;;;14.36;64.42
50652;BME280;61429;52.086;5.240;2022-07-17T03:31:47;102667.0;;;14.47;64.05
50652;BME280;61429;52.086;5.240;2022-07-17T03:33:34;102666.00000000001;;;14.55;63.88
50652;BME280;61429;52.086;5.240;2022-07-17T03:35:21;102667.0;;;14.56;63.89
50652;BME280;61429;52.086;5.240;2022-07-17T03:37:09;102669.0;;;14.59;63.87
50652;BME280;61429;52.086;5.240;2022-07-17T03:40:42;102674.0;;;14.61;63.75
50652;BME280;61429;52.086;5.240;2022-07-17T03:42:28;102664.00000000001;;;14.6;63.78
50652;BME280;61429;52.086;5.240;2022-07-17T03:44:15;102661.99999999999;;;14.49;63.92
50652;BME280;61429;52.086;5.240;2022-07-17T03:46:02;102657.0;;;14.49;63.93
50652;BME280;61429;52.086;5.240;2022-07-17T03:47:49;102655.0;;;14.5;63.91
50652;BME280;61429;52.086;5.240;2022-07-17T03:49:36;102656.0;;;14.69;63.33
50652;BME280;61429;52.086;5.240;2022-07-17T03:53:10;102659.99999999999;;;14.44;63.91
50652;BME280;61429;52.086;5.240;2022-07-17T03:54:57;102667.0;;;14.35;64.19
50652;BME280;61429;52.086;5.240;2022-07-17T03:56:44;102670.0;;;14.34;64.25
50652;BME280;61429;52.086;5.240;2022-07-17T03:58:31;102670.0;;;14.37;64.14
50652;BME280;61429;52.086;5.240;2022-07-17T04:00:18;102671.0;;;14.37;64.3
50652;BME280;61429;52.086;5.240;2022-07-17T04:02:05;102672.0;;;14.46;63.87
50652;BME280;61429;52.086;5.240;2022-07-17T04:05:39;102674.0;;;14.4;64.08
50652;BME280;61429;52.086;5.240;2022-07-17T04:07:27;102673.0;;;14.47;63.82
50652;BME280;61429;52.086;5.240;2022-07-17T04:09:14;102674.0;;;14.31;64.37
50652;BME280;61429;52.086;5.240;2022-07-17T04:11:01;102672.0;;;14.47;63.9
50652;BME280;61429;52.086;5.240;2022-07-17T04:12:48;102674.0;;;14.5;63.79
50652;BME280;61429;52.086;5.240;2022-07-17T04:14:36;102683.99999999999;;;14.56;63.57
50652;BME280;61429;52.086;5.240;2022-07-17T04:18:09;102684.99999999999;;;14.57;63.5
50652;BME280;61429;52.086;5.240;2022-07-17T04:19:55;102694.0;;;14.65;63.22
50652;BME280;61429;52.086;5.240;2022-07-17T04:21:42;102695.0;;;14.6;63.31
50652;BME280;61429;52.086;5.240;2022-07-17T04:23:29;102693.0;;;14.38;63.88
50652;BME280;61429;52.086;5.240;2022-07-17T04:25:16;102689.00000000001;;;14.72;62.9
50652;BME280;61429;52.086;5.240;2022-07-17T04:28:50;102683.99999999999;;;14.8;62.46
50652;BME280;61429;52.086;5.240;2022-07-17T04:30:38;102683.0;;;14.75;62.45
50652;BME280;61429;52.086;5.240;2022-07-17T04:32:24;102682.0;;;14.82;62.26
50652;BME280;61429;52.086;5.240;2022-07-17T04:34:11;102689.00000000001;;;14.78;62.37
50652;BME280;61429;52.086;5.240;2022-07-17T04:35:58;102684.99999999999;;;14.62;62.67
50652;BME280;61429;52.086;5.240;2022-07-17T04:37:45;102683.0;;;14.84;62.2
50652;BME280;61429;52.086;5.240;2022-07-17T04:41:19;102684.99999999999;;;14.86;62.2
50652;BME280;61429;52.086;5.240;2022-07-17T04:43:06;102689.00000000001;;;14.78;62.29
50652;BME280;61429;52.086;5.240;2022-07-17T04:44:54;102691.00000000001;;;15.0;61.77
50652;BME280;61429;52.086;5.240;2022-07-17T04:46:40;102695.0;;;15.09;61.14
50652;BME280;61429;52.086;5.240;2022-07-17T04:48:27;102691.00000000001;;;15.35;60.35
50652;BME280;61429;52.086;5.240;2022-07-17T04:50:15;102681.0;;;15.58;59.5
50652;BME280;61429;52.086;5.240;2022-07-17T04:53:49;102676.0;;;15.9;58.8
50652;BME280;61429;52.086;5.240;2022-07-17T04:55:35;102664.00000000001;;;16.16;58.03
50652;BME280;61429;52.086;5.240;2022-07-17T04:57:22;102663.00000000001;;;16.32;57.25
50652;BME280;61429;52.086;5.240;2022-07-17T04:59:09;102661.99999999999;;;16.5;56.86
50652;BME280;61429;52.086;5.240;2022-07-17T05:00:56;102657.0;;;16.47;56.73
50652;BME280;61429;52.086;5.240;2022-07-17T05:02:44;102657.0;;;16.5;56.84
50652;BME280;61429;52.086;5.240;2022-07-17T05:06:17;102656.0;;;16.75;55.99
50652;BME280;61429;52.086;5.240;2022-07-17T05:08:04;102654.0;;;16.93;55.54
50652;BME280;61429;52.086;5.240;2022-07-17T05:09:50;102656.0;;;17.12;54.82
50652;BME280;61429;52.086;5.240;2022-07-17T05:11:37;102650.0;;;17.32;54.37
50652;BME280;61429;52.086;5.240;2022-07-17T05:13:25;102654.0;;;17.36;53.87
50652;BME280;61429;52.086;5.240;2022-07-17T05:15:13;102658.99999999999;;;17.56;53.52
50652;BME280;61429;52.086;5.240;2022-07-17T05:18:46;102661.99999999999;;;17.46;53.51
50652;BME280;61429;52.086;5.240;2022-07-17T05:20:35;102659.99999999999;;;17.56;53.56
50652;BME280;61429;52.086;5.240;2022-07-17T05:22:21;102655.0;;;17.61;53.36
50652;BME280;61429;52.086;5.240;2022-07-17T05:24:08;102652.0;;;17.61;53.76
50652;BME280;61429;52.086;5.240;2022-07-17T05:25:55;102642.0;;;17.43;54.06
50652;BME280;61429;52.086;5.240;2022-07-17T05:29:29;102644.0;;;17.46;54.28
50652;BME280;61429;52.086;5.240;2022-07-17T05:31:15;102642.0;;;17.25;54.98
50652;BME280;61429;52.086;5.240;2022-07-17T05:33:03;102650.0;;;17.03;55.72
50652;BME280;61429;52.086;5.240;2022-07-17T05:34:49;102649.0;;;16.95;56.14
50652;BME280;61429;52.086;5.240;2022-07-17T05:36:36;102654.0;;;16.77;56.52
50652;BME280;61429;52.086;5.240;2022-07-17T05:38:23;102656.0;;;16.88;56.55
50652;BME280;61429;52.086;5.240;2022-07-17T05:41:57;102657.0;;;16.84;56.54
50652;BME280;61429;52.086;5.240;2022-07-17T05:43:45;102658.0;;;16.84;56.67
50652;BME280;61429;52.086;5.240;2022-07-17T05:45:31;102658.0;;;16.77;56.88
50652;BME280;61429;52.086;5.240;2022-07-17T05:47:17;102663.00000000001;;;16.84;56.86
50652;BME280;61429;52.086;5.240;2022-07-17T05:49:04;102669.0;;;16.84;56.72
50652;BME280;61429;52.086;5.240;2022-07-17T05:50:51;102672.0;;;16.9;56.74
50652;BME280;61429;52.086;5.240;2022-07-17T05:54:25;102675.0;;;16.96;56.55
50652;BME280;61429;52.086;5.240;2022-07-17T05:56:11;102671.0;;;17.02;56.46
50652;BME280;61429;52.086;5.240;2022-07-17T05:57:58;102668.0;;;16.93;56.7
50652;BME280;61429;52.086;5.240;2022-07-17T05:59:45;102669.0;;;16.81;57.05
50652;BME280;61429;52.086;5.240;2022-07-17T06:01:33;102675.0;;;16.86;57.04
50652;BME280;61429;52.086;5.240;2022-07-17T06:03:21;102673.0;;;16.93;57.0
50652;BME280;61429;52.086;5.240;2022-07-17T06:06:56;102671.0;;;16.84;57.25
50652;BME280;61429;52.086;5.240;2022-07-17T06:08:43;102673.0;;;17.02;56.92
50652;BME280;61429;52.086;5.240;2022-07-17T06:10:30;102681.0;;;16.96;57.02
50652;BME280;61429;52.086;5.240;2022-07-17T06:12:18;102688.00000000001;;;17.03;56.72
50652;BME280;61429;52.086;5.240;2022-07-17T06:14:04;102696.0;;;16.96;56.67
50652;BME280;61429;52.086;5.240;2022-07-17T06:15:52;102702.0;;;17.05;56.29
50652;BME280;61429;52.086;5.240;2022-07-17T06:19:26;102709.99999999999;;;17.21;56.15
50652;BME280;61429;52.086;5.240;2022-07-17T06:21:13;102711.99999999999;;;17.22;56.01
50652;BME280;61429;52.086;5.240;2022-07-17T06:23:00;102711.99999999999;;;17.2;56.04
50652;BME280;61429;52.086;5.240;2022-07-17T06:24:47;102705.0;;;17.34;55.65
50652;BME280;61429;52.086;5.240;2022-07-17T06:26:34;102708.0;;;17.45;55.31
50652;BME280;61429;52.086;5.240;2022-07-17T06:30:09;102708.0;;;17.46;54.88
50652;BME280;61429;52.086;5.240;2022-07-17T06:31:57;102715.00000000001;;;17.54;54.96
50652;BME280;61429;52.086;5.240;2022-07-17T06:33:44;102716.00000000001;;;17.41;55.04
50652;BME280;61429;52.086;5.240;2022-07-17T06:35:33;102716.00000000001;;;17.5;54.86
50652;BME280;61429;52.086;5.240;2022-07-17T06:37:20;102721.0;;;17.64;54.12
50652;BME280;61429;52.086;5.240;2022-07-17T06:39:07;102722.0;;;17.61;53.98
50652;BME280;61429;52.086;5.240;2022-07-17T06:42:40;102725.0;;;17.66;53.99
50652;BME280;61429;52.086;5.240;2022-07-17T06:44:28;102726.0;;;17.77;53.47
50652;BME280;61429;52.086;5.240;2022-07-17T06:46:15;102722.0;;;17.77;53.37
50652;BME280;61429;52.086;5.240;2022-07-17T06:48:03;102720.0;;;17.77;53.47
50652;BME280;61429;52.086;5.240;2022-07-17T06:49:49;102722.0;;;17.72;53.3
50652;BME280;61429;52.086;5.240;2022-07-17T06:51:36;102718.0;;;17.71;53.02
50652;BME280;61429;52.086;5.240;2022-07-17T06:55:10;102717.0;;;17.86;52.92
50652;BME280;61429;52.086;5.240;2022-07-17T06:56:56;102717.0;;;17.95;52.59
50652;BME280;61429;52.086;5.240;2022-07-17T06:58:43;102723.0;;;17.95;52.32
50652;BME280;61429;52.086;5.240;2022-07-17T07:00:30;102728.0;;;18.11;51.97
50652;BME280;61429;52.086;5.240;2022-07-17T07:02:17;102728.0;;;18.13;51.96
50652;BME280;61429;52.086;5.240;2022-07-17T07:04:04;102724.0;;;18.05;52.27
50652;BME280;61429;52.086;5.240;2022-07-17T07:07:38;102732.0;;;18.04;51.85
50652;BME280;61429;52.086;5.240;2022-07-17T07:09:26;102725.0;;;18.14;51.19
50652;BME280;61429;52.086;5.240;2022-07-17T07:11:12;102728.0;;;18.16;51.13
50652;BME280;61429;52.086;5.240;2022-07-17T07:12:58;102725.0;;;18.3;50.63
50652;BME280;61429;52.086;5.240;2022-07-17T07:14:46;102718.0;;;18.34;50.56
50652;BME280;61429;52.086;5.240;2022-07-17T07:16:33;102719.0;;;18.41;50.34
50652;BME280;61429;52.086;5.240;2022-07-17T07:20:09;102722.0;;;18.37;51.1
50652;BME280;61429;52.086;5.240;2022-07-17T07:21:57;102723.0;;;18.54;50.68
50652;BME280;61429;52.086;5.240;2022-07-17T07:23:44;102724.0;;;18.53;50.83
50652;BME280;61429;52.086;5.240;2022-07-17T07:25:31;102724.0;;;18.55;50.74
50652;BME280;61429;52.086;5.240;2022-07-17T07:27:18;102719.0;;;18.7;50.75
50652;BME280;61429;52.086;5.240;2022-07-17T07:29:05;102716.00000000001;;;18.66;51.17
50652;BME280;61429;52.086;5.240;2022-07-17T07:32:40;102713.00000000001;;;18.79;51.36
50652;BME280;61429;52.086;5.240;2022-07-17T07:34:26;102717.0;;;18.7;51.67
50652;BME280;61429;52.086;5.240;2022-07-17T07:36:13;102718.0;;;18.93;51.1
50652;BME280;61429;52.086;5.240;2022-07-17T07:38:02;102720.0;;;18.98;51.16
50652;BME280;61429;52.086;5.240;2022-07-17T07:39:49;102729.0;;;19.07;51.09
50652;BME280;61429;52.086;5.240;2022-07-17T07:43:24;102729.0;;;18.96;51.2
50652;BME280;61429;52.086;5.240;2022-07-17T07:45:11;102727.0;;;19.02;50.97
50652;BME280;61429;52.086;5.240;2022-07-17T07:46:58;102728.0;;;19.02;50.88
50652;BME280;61429;52.086;5.240;2022-07-17T07:48:45;102726.0;;;19.12;50.78
50652;BME280;61429;52.086;5.240;2022-07-17T07:50:32;102725.0;;;19.18;50.64
50652;BME280;61429;52.086;5.240;2022-07-17T07:52:19;102730.0;;;19.14;50.57
50652;BME280;61429;52.086;5.240;2022-07-17T07:55:53;102727.0;;;19.09;50.63
50652;BME280;61429;52.086;5.240;2022-07-17T07:57:41;102722.0;;;19.29;50.16
50652;BME280;61429;52.086;5.240;2022-07-17T07:59:28;102726.0;;;19.34;49.91
50652;BME280;61429;52.086;5.240;2022-07-17T08:01:15;102724.0;;;19.18;50.19
50652;BME280;61429;52.086;5.240;2022-07-17T08:03:02;102734.99999999999;;;19.11;49.98
50652;BME280;61429;52.086;5.240;2022-07-17T08:04:50;102733.0;;;18.95;49.88
50652;BME280;61429;52.086;5.240;2022-07-17T08:08:24;102726.0;;;19.27;49.08
50652;BME280;61429;52.086;5.240;2022-07-17T08:10:12;102733.0;;;19.36;48.81
50652;BME280;61429;52.086;5.240;2022-07-17T08:11:59;102732.0;;;19.03;49.64
50652;BME280;61429;52.086;5.240;2022-07-17T08:13:46;102728.0;;;19.27;49.07
50652;BME280;61429;52.086;5.240;2022-07-17T08:15:33;102719.0;;;19.5;48.26
50652;BME280;61429;52.086;5.240;2022-07-17T08:17:21;102721.0;;;19.59;48.22
50652;BME280;61429;52.086;5.240;2022-07-17T08:20:54;102721.0;;;19.56;48.05
50652;BME280;61429;52.086;5.240;2022-07-17T08:22:43;102719.0;;;19.54;48.28
50652;BME280;61429;52.086;5.240;2022-07-17T08:24:32;102720.0;;;19.61;48.03
50652;BME280;61429;52.086;5.240;2022-07-17T08:26:18;102718.0;;;19.68;48.06
50652;BME280;61429;52.086;5.240;2022-07-17T08:28:06;102716.00000000001;;;19.75;48.06
50652;BME280;61429;52.086;5.240;2022-07-17T08:29:52;102720.0;;;19.66;48.41
50652;BME280;61429;52.086;5.240;2022-07-17T08:33:27;102714.00000000001;;;19.7;48.27
50652;BME280;61429;52.086;5.240;2022-07-17T08:35:14;102715.00000000001;;;19.88;47.75
50652;BME280;61429;52.086;5.240;2022-07-17T08:37:00;102708.99999999999;;;19.91;47.57
50652;BME280;61429;52.086;5.240;2022-07-17T08:38:47;102708.99999999999;;;19.95;47.31
50652;BME280;61429;52.086;5.240;2022-07-17T08:40:37;102709.99999999999;;;19.86;47.54
50652;BME280;61429;52.086;5.240;2022-07-17T08:42:32;102711.99999999999;;;19.95;47.37
50652;BME280;61429;52.086;5.240;2022-07-17T08:46:05;102713.00000000001;;;20.12;47.38
50652;BME280;61429;52.086;5.240;2022-07-17T08:47:54;102714.00000000001;;;20.14;47.28
50652;BME280;61429;52.086;5.240;2022-07-17T08:49:44;102713.00000000001;;;20.27;46.98
50652;BME280;61429;52.086;5.240;2022-07-17T08:51:33;102711.99999999999;;;20.47;46.5
50652;BME280;61429;52.086;5.240;2022-07-17T08:53:21;102702.0;;;20.53;46.63
50652;BME280;61429;52.086;5.240;2022-07-17T08:55:11;102708.99999999999;;;20.45;46.59
50652;BME280;61429;52.086;5.240;2022-07-17T08:56:58;102702.0;;;20.54;46.32
50652;BME280;61429;52.086;5.240;2022-07-17T09:00:31;102697.0;;;20.63;46.06
50652;BME280;61429;52.086;5.240;2022-07-17T09:02:18;102695.0;;;20.72;45.81
50652;BME280;61429;52.086;5.240;2022-07-17T09:04:06;102698.0;;;20.8;45.72
50652;BME280;61429;52.086;5.240;2022-07-17T09:05:53;102695.0;;;20.71;45.99
50652;BME280;61429;52.086;5.240;2022-07-17T09:07:45;102697.0;;;20.92;45.81
50652;BME280;61429;52.086;5.240;2022-07-17T09:09:33;102700.0;;;20.75;45.79
50652;BME280;61429;52.086;5.240;2022-07-17T09:13:25;102699.0;;;20.72;45.7
50652;BME280;61429;52.086;5.240;2022-07-17T09:15:16;102697.0;;;20.76;45.09
50652;BME280;61429;52.086;5.240;2022-07-17T09:17:05;102697.0;;;20.62;45.35
50652;BME280;61429;52.086;5.240;2022-07-17T09:18:53;102699.0;;;20.85;44.93
50652;BME280;61429;52.086;5.240;2022-07-17T09:20:45;102694.0;;;21.02;44.57
50652;BME280;61429;52.086;5.240;2022-07-17T09:22:33;102697.0;;;21.18;44.24
50652;BME280;61429;52.086;5.240;2022-07-17T09:24:21;102694.0;;;21.02;43.69
50652;BME280;61429;52.086;5.240;2022-07-17T09:27:56;102692.0;;;21.08;43.78
50652;BME280;61429;52.086;5.240;2022-07-17T09:29:52;102698.0;;;21.32;43.57
50652;BME280;61429;52.086;5.240;2022-07-17T09:31:40;102698.0;;;21.14;43.85
50652;BME280;61429;52.086;5.240;2022-07-17T09:33:27;102701.0;;;21.38;43.3
50652;BME280;61429;52.086;5.240;2022-07-17T09:35:16;102706.0;;;20.66;45.09
50652;BME280;61429;52.086;5.240;2022-07-17T09:37:04;102702.0;;;21.02;44.64
50652;BME280;61429;52.086;5.240;2022-07-17T09:38:53;102706.0;;;21.04;44.34
50652;BME280;61429;52.086;5.240;2022-07-17T09:43:02;102706.0;;;20.98;45.49
50652;BME280;61429;52.086;5.240;2022-07-17T09:46:46;102700.0;;;21.28;44.68
50652;BME280;61429;52.086;5.240;2022-07-17T09:48:33;102696.0;;;21.23;44.94
50652;BME280;61429;52.086;5.240;2022-07-17T09:50:27;102691.00000000001;;;21.53;44.09
50652;BME280;61429;52.086;5.240;2022-07-17T09:52:16;102695.0;;;21.43;44.09
50652;BME280;61429;52.086;5.240;2022-07-17T09:54:04;102690.00000000001;;;21.47;44.14
50652;BME280;61429;52.086;5.240;2022-07-17T09:55:54;102691.00000000001;;;21.58;43.78
50652;BME280;61429;52.086;5.240;2022-07-17T09:57:43;102683.0;;;21.83;43.02
50652;BME280;61429;52.086;5.240;2022-07-17T10:01:23;102680.0;;;21.65;42.21
50652;BME280;61429;52.086;5.240;2022-07-17T10:03:10;102679.0;;;21.68;42.41
50652;BME280;61429;52.086;5.240;2022-07-17T10:04:58;102681.0;;;21.79;42.62
50652;BME280;61429;52.086;5.240;2022-07-17T10:06:46;102692.0;;;21.69;42.86
50652;BME280;61429;52.086;5.240;2022-07-17T10:08:34;102691.00000000001;;;21.79;42.85
50652;BME280;61429;52.086;5.240;2022-07-17T10:10:21;102691.00000000001;;;21.77;43.06
50652;BME280;61429;52.086;5.240;2022-07-17T10:14:02;102686.99999999999;;;21.84;43.12
50652;BME280;61429;52.086;5.240;2022-07-17T10:15:50;102686.99999999999;;;21.92;43.32
50652;BME280;61429;52.086;5.240;2022-07-17T10:17:38;102683.0;;;22.01;42.81
50652;BME280;61429;52.086;5.240;2022-07-17T10:19:25;102682.0;;;22.21;42.5
50652;BME280;61429;52.086;5.240;2022-07-17T10:21:13;102682.0;;;22.2;42.47
50652;BME280;61429;52.086;5.240;2022-07-17T10:23:12;102682.0;;;21.96;42.69
50652;BME280;61429;52.086;5.240;2022-07-17T10:25:04;102681.0;;;22.04;42.41
50652;BME280;61429;52.086;5.240;2022-07-17T10:28:42;102677.0;;;22.18;42.05
50652;BME280;61429;52.086;5.240;2022-07-17T10:30:31;102678.0;;;22.43;41.71
50652;BME280;61429;52.086;5.240;2022-07-17T10:32:18;102679.0;;;22.51;41.48
50652;BME280;61429;52.086;5.240;2022-07-17T10:34:06;102678.0;;;22.57;41.46
50652;BME280;61429;52.086;5.240;2022-07-17T10:35:53;102680.0;;;22.72;41.53
50652;BME280;61429;52.086;5.240;2022-07-17T10:37:41;102682.0;;;22.45;41.83
50652;BME280;61429;52.086;5.240;2022-07-17T10:39:29;102684.99999999999;;;22.47;41.69
50652;BME280;61429;52.086;5.240;2022-07-17T10:43:07;102679.0;;;22.66;41.29